Time;durP1;ratioP1;P1;durP2;ratioP2;P2;SDS_P1;SDS_P2;PMS_P1;PMS_P2;Temp;Humidity;BMP_temperature;BMP_pressure;BME280_temperature;BME280_humidity;BME280_pressure;Samples;Min_cycle;Max_cycle;Signal;HPM_P1;HPM_P2
2022/02/10 00:16:10;;;;;;;8.95;5.68;;;;;;;13.09;49.77;101767.25;5003068;28;20144;-81
2022/02/10 00:21:11;;;;;;;10.27;5.97;;;;;;;13.09;49.52;101759.06;5006733;28;20084;-80
2022/02/10 00:34:56;;;;;;;10.40;5.72;;;;;;;13.05;49.62;101748.44;5001542;28;20058;-81
2022/02/10 00:37:35;;;;;;;9.32;5.47;;;;;;;13.06;49.75;101750.19;4989196;28;20054;-81
2022/02/10 00:40:12;;;;;;;8.63;5.72;;;;;;;13.07;49.87;101747.38;4981220;28;20141;-81
2022/02/10 00:42:39;;;;;;;7.60;5.75;;;;;;;13.07;49.45;101746.50;4987456;28;20062;-81
2022/02/10 00:45:05;;;;;;;8.95;5.32;;;;;;;13.07;49.67;101732.88;4987175;28;20150;-81
2022/02/10 00:47:45;;;;;;;8.45;5.63;;;;;;;13.06;49.80;101732.00;4982988;28;20132;-81
2022/02/10 00:50:12;;;;;;;7.90;5.53;;;;;;;13.04;49.42;101733.94;4986010;28;20113;-81
2022/02/10 00:52:42;;;;;;;7.82;5.80;;;;;;;13.04;49.59;101739.38;4987575;28;20100;-81
2022/02/10 00:55:09;;;;;;;8.25;5.38;;;;;;;13.03;49.54;101737.63;4995317;28;20090;-81
2022/02/10 00:57:38;;;;;;;10.57;5.97;;;;;;;13.02;49.25;101735.88;5007368;28;20049;-81
2022/02/10 01:10:58;;;;;;;10.45;6.00;;;;;;;12.98;49.66;101723.44;4991414;28;20381;-81
2022/02/10 01:29:41;;;;;;;8.75;5.47;;;;;;;12.88;49.45;101695.88;5007498;28;20137;-81
2022/02/10 01:32:08;;;;;;;9.50;6.18;;;;;;;12.86;49.54;101703.25;4992638;28;20145;-81
2022/02/10 01:34:42;;;;;;;9.30;5.70;;;;;;;12.85;49.38;101700.63;4991014;28;20054;-81
2022/02/10 01:37:09;;;;;;;9.02;5.88;;;;;;;12.83;49.26;101697.13;4992148;28;20055;-81
2022/02/10 01:39:42;;;;;;;7.15;5.03;;;;;;;12.81;49.51;101685.44;4994031;28;20088;-81
2022/02/10 02:04:22;;;;;;;8.27;5.50;;;;;;;12.62;49.69;101665.75;4990596;28;20085;-81
2022/02/10 02:06:52;;;;;;;9.95;5.78;;;;;;;12.62;49.48;101669.38;4990064;28;20039;-81
2022/02/10 02:09:20;;;;;;;9.55;5.78;;;;;;;12.61;49.67;101667.63;4990519;28;20069;-81
2022/02/10 02:11:51;;;;;;;9.20;6.00;;;;;;;12.61;49.35;101662.16;4991472;28;20485;-81
2022/02/10 02:14:22;;;;;;;8.95;5.93;;;;;;;12.61;49.49;101661.28;4986331;28;20046;-81
2022/02/10 02:16:52;;;;;;;8.25;5.90;;;;;;;12.61;49.69;101661.28;4988568;28;20086;-81
2022/02/10 02:19:19;;;;;;;9.55;5.82;;;;;;;12.58;49.56;101652.34;4987461;28;20125;-81
2022/02/10 02:21:46;;;;;;;9.38;5.82;;;;;;;12.58;49.72;101644.19;4989508;28;20097;-82
2022/02/10 02:24:20;;;;;;;10.50;6.18;;;;;;;12.59;49.83;101645.06;4988199;28;20069;-81
2022/02/10 02:26:48;;;;;;;8.70;6.05;;;;;;;12.57;49.73;101639.72;5005049;28;20498;-81
2022/02/10 02:29:29;;;;;;;9.43;5.93;;;;;;;12.57;49.81;101644.28;4986962;28;20504;-81
2022/02/10 02:32:00;;;;;;;9.23;6.28;;;;;;;12.56;49.42;101637.94;4991105;28;20086;-81
2022/02/10 02:34:53;;;;;;;9.82;6.68;;;;;;;12.55;49.47;101635.31;4987076;28;20088;-81
2022/02/10 03:04:53;;;;;;;8.93;6.05;;;;;;;12.23;49.74;101598.31;5006018;28;20694;-81
2022/02/10 03:10:08;;;;;;;10.10;6.78;;;;;;;12.20;49.65;101592.09;5008302;28;20060;-81
2022/02/10 03:12:38;;;;;;;9.80;5.90;;;;;;;12.17;49.81;101578.69;4998003;28;20577;-81
2022/02/10 03:15:12;;;;;;;9.55;6.50;;;;;;;12.17;49.56;101577.81;5007433;28;20523;-81
2022/02/10 03:17:55;;;;;;;10.43;6.53;;;;;;;12.15;49.40;101563.41;5008635;28;20081;-80
2022/02/10 04:12:48;;;;;;;10.77;5.25;;;;;;;11.71;49.50;101506.25;5009106;28;20054;-80
2022/02/10 04:15:29;;;;;;;8.37;5.10;;;;;;;11.68;49.62;101515.50;4996348;28;20050;-81
2022/02/10 04:28:54;;;;;;;8.18;5.20;;;;;;;11.62;49.46;101521.28;5007752;28;20136;-81
2022/02/10 04:53:57;;;;;;;7.95;4.75;;;;;;;11.62;49.69;101526.72;5008805;28;20806;-81
2022/02/10 04:56:03;;;;;;;6.85;4.70;;;;;;;11.63;49.88;101528.47;4996070;28;20051;-81
2022/02/10 04:58:56;;;;;;;8.32;4.95;;;;;;;11.63;49.87;101525.75;5013241;28;20134;-81
2022/02/10 05:01:41;;;;;;;7.78;4.85;;;;;;;11.64;49.81;101513.91;5006380;28;20137;-81
2022/02/10 05:38:08;;;;;;;8.85;5.00;;;;;;;11.68;49.46;101504.59;5009191;28;20127;-80
2022/02/10 05:43:26;;;;;;;10.70;4.85;;;;;;;11.68;49.86;101501.00;5010705;28;20132;-81
2022/02/10 06:02:29;;;;;;;8.23;5.05;;;;;;;11.64;49.57;101494.88;5008010;28;20092;-81
2022/02/10 06:51:06;;;;;;;8.60;4.40;;;;;;;11.65;50.09;101514.78;5009082;28;20133;-80
2022/02/10 07:04:27;;;;;;;7.20;4.63;;;;;;;11.67;49.88;101516.44;5014136;28;20324;-82
2022/02/10 07:09:58;;;;;;;8.07;4.80;;;;;;;11.73;50.17;101523.34;5006168;28;20097;-83
2022/02/10 07:59:13;;;;;;;6.85;4.82;;;;;;;11.91;49.76;101563.06;5009587;28;20046;-83
2022/02/10 08:56:04;;;;;;;10.40;5.05;;;;;;;12.09;50.00;101593.75;5010448;28;20452;-81
2022/02/10 09:06:29;;;;;;;10.95;5.78;;;;;;;12.15;50.02;101590.63;5010881;28;20167;-79
2022/02/10 09:48:04;;;;;;;8.25;5.00;;;;;;;12.34;50.34;101602.16;4969913;28;20039;-80
2022/02/10 09:58:39;;;;;;;8.88;5.38;;;;;;;12.39;49.71;101605.44;5005441;28;20482;-79
2022/02/10 10:01:45;;;;;;;9.25;5.53;;;;;;;12.42;50.01;101607.09;4993332;28;20148;-79
2022/02/10 10:04:18;;;;;;;8.60;5.10;;;;;;;12.41;50.01;101606.22;4993084;28;20158;-80
2022/02/10 10:09:27;;;;;;;10.00;5.60;;;;;;;12.46;49.90;101614.09;4989764;28;20136;-83
2022/02/10 10:12:25;;;;;;;8.02;5.30;;;;;;;12.48;50.44;101614.88;4991552;28;20058;-81
2022/02/10 10:16:01;;;;;;;7.90;5.10;;;;;;;12.48;49.89;101612.16;4988974;28;20046;-81
2022/02/10 10:18:33;;;;;;;10.65;5.30;;;;;;;12.48;49.95;101613.03;4998354;28;20066;-82
2022/02/10 10:21:42;;;;;;;9.13;5.30;;;;;;;12.47;50.29;101621.31;5004856;28;20100;-83
2022/02/10 10:24:28;;;;;;;7.53;4.90;;;;;;;12.44;50.01;101622.34;4995668;28;20152;-81
2022/02/10 10:57:16;;;;;;;6.88;4.20;;;;;;;12.45;50.95;101623.25;4990145;28;20085;-81
2022/02/10 11:36:22;;;;;;;9.52;5.53;;;;;;;12.44;51.54;101629.66;4985953;28;20146;-82
2022/02/10 11:36:39;;;;;;;7.90;5.63;;;;;;;12.40;51.90;101631.72;5007169;28;20568;-81
2022/02/10 11:39:11;;;;;;;10.30;6.00;;;;;;;12.38;51.62;101630.03;5003225;28;20069;-82
2022/02/10 11:44:23;;;;;;;9.63;6.22;;;;;;;12.40;51.85;101628.09;5010590;28;20120;-80
2022/02/10 13:48:49;;;;;;;4.68;2.50;;;;;;;12.52;53.40;101627.31;4983448;28;20105;-80
2022/02/10 14:12:58;;;;;;;4.60;2.30;;;;;;;12.60;53.61;101611.38;5011320;28;20141;-78
2022/02/10 14:15:38;;;;;;;3.72;2.13;;;;;;;12.63;53.46;101623.94;5004605;28;20085;-79
2022/02/10 14:25:57;;;;;;;4.20;2.45;;;;;;;12.73;53.62;101623.25;5005249;28;20151;-79
2022/02/10 14:28:25;;;;;;;3.88;2.65;;;;;;;12.72;53.66;101626.06;5009687;28;20081;-79
2022/02/10 14:30:54;;;;;;;6.35;3.35;;;;;;;12.75;53.26;101628.63;5007827;28;20136;-80
2022/02/10 14:33:34;;;;;;;5.93;3.20;;;;;;;12.77;53.20;101622.09;5010879;28;20104;-79
2022/02/10 14:36:07;;;;;;;5.18;3.05;;;;;;;12.78;53.52;101628.41;5001266;28;20149;-80
2022/02/10 14:38:57;;;;;;;4.82;2.67;;;;;;;12.79;53.34;101611.97;5008542;28;20345;-80
2022/02/10 15:36:00;;;;;;;5.47;3.42;;;;;;;12.89;52.98;101643.13;5010100;28;20073;-79
2022/02/10 15:53:09;;;;;;;4.85;2.90;;;;;;;12.89;52.56;101645.84;5009286;28;20050;-78
2022/02/10 16:13:15;;;;;;;6.43;3.83;;;;;;;12.84;52.53;101667.06;4991774;28;20054;-79
2022/02/10 16:17:17;;;;;;;6.93;3.80;;;;;;;12.82;52.53;101665.41;5006868;28;20073;-80
2022/02/10 16:19:46;;;;;;;6.18;3.80;;;;;;;12.84;52.41;101663.47;5007308;28;20638;-81
2022/02/10 16:24:49;;;;;;;8.27;4.50;;;;;;;12.82;52.18;101660.84;5007592;28;20081;-80
2022/02/10 16:27:26;;;;;;;7.55;4.05;;;;;;;12.81;52.60;101666.38;5006957;28;20058;-81
2022/02/10 16:30:01;;;;;;;6.85;4.47;;;;;;;12.81;52.38;101669.09;5006257;28;20054;-80
2022/02/10 16:32:29;;;;;;;8.13;4.60;;;;;;;12.80;52.17;101659.16;5003369;28;20413;-81
2022/02/10 16:35:03;;;;;;;7.22;4.57;;;;;;;12.77;52.17;101662.94;4970098;28;20544;-80
2022/02/10 16:37:35;;;;;;;6.75;3.85;;;;;;;12.77;52.25;101659.34;4986895;28;20054;-80
2022/02/10 16:40:07;;;;;;;7.63;4.43;;;;;;;12.75;52.80;101655.88;4970410;28;20709;-80
2022/02/10 16:42:39;;;;;;;7.13;4.38;;;;;;;12.74;52.74;101659.56;4977662;28;20470;-81
2022/02/10 16:45:10;;;;;;;8.75;4.80;;;;;;;12.75;52.55;101659.47;4964833;28;20062;-81
2022/02/10 16:47:42;;;;;;;7.65;4.53;;;;;;;12.75;52.83;101653.16;4986985;28;20054;-81
2022/02/10 16:50:14;;;;;;;7.57;4.60;;;;;;;12.73;52.52;101658.69;4996585;28;20399;-82
2022/02/10 16:52:51;;;;;;;7.88;4.35;;;;;;;12.72;52.81;101656.94;4997911;28;20480;-81
2022/02/10 16:55:41;;;;;;;7.97;4.20;;;;;;;12.72;52.84;101659.66;5009496;28;20509;-81
2022/02/10 16:58:32;;;;;;;6.10;3.70;;;;;;;12.71;53.01;101659.75;5011590;28;20050;-82
2022/02/10 17:26:09;;;;;;;7.68;4.40;;;;;;;12.60;53.22;101667.75;4959749;28;20054;-81
2022/02/10 17:28:38;;;;;;;8.48;4.68;;;;;;;12.58;53.15;101678.72;5008672;28;20425;-81
2022/02/10 17:33:51;;;;;;;8.25;4.60;;;;;;;12.58;53.06;101671.44;5012915;28;20355;-82
2022/02/10 17:52:56;;;;;;;6.38;3.20;;;;;;;12.48;52.96;101662.06;5012628;28;20075;-81
2022/02/10 17:55:23;;;;;;;6.40;4.15;;;;;;;12.48;52.94;101666.63;5010319;28;20084;-82
2022/02/10 17:57:49;;;;;;;6.18;3.90;;;;;;;12.47;52.94;101662.16;5012892;28;20080;-82
2022/02/10 18:00:17;;;;;;;8.00;4.50;;;;;;;12.47;53.08;101668.47;5010766;28;20135;-81
2022/02/10 18:02:47;;;;;;;6.72;4.18;;;;;;;12.47;53.32;101673.94;5011992;28;20041;-82
2022/02/10 18:05:36;;;;;;;7.07;4.60;;;;;;;12.46;53.44;101668.56;5005673;28;20141;-81
2022/02/10 18:08:02;;;;;;;8.02;3.75;;;;;;;12.45;53.25;101667.69;5011925;28;20046;-82
2022/02/10 18:15:54;;;;;;;6.90;4.30;;;;;;;12.43;53.34;101675.09;5008898;28;20429;-82
2022/02/10 18:18:46;;;;;;;6.50;3.58;;;;;;;12.43;53.26;101679.69;5012485;28;20116;-82
2022/02/10 18:26:56;;;;;;;6.18;3.47;;;;;;;12.44;53.12;101678.69;5009022;28;20045;-81
2022/02/10 18:38:27;;;;;;;5.22;3.05;;;;;;;12.39;52.91;101689.00;5010823;28;20077;-81
2022/02/10 19:10:06;;;;;;;2.92;1.30;;;;;;;12.12;51.57;101755.00;5012909;28;20058;-81
2022/02/10 19:12:43;;;;;;;3.47;1.50;;;;;;;12.06;51.35;101744.50;5006866;28;20077;-78
2022/02/10 19:15:33;;;;;;;3.40;1.30;;;;;;;12.02;51.51;101756.53;4980331;28;20137;-79
2022/02/10 19:18:02;;;;;;;3.53;1.50;;;;;;;11.97;51.25;101765.94;4999738;28;20045;-80
2022/02/10 19:20:29;;;;;;;3.05;1.50;;;;;;;11.90;51.02;101756.38;4990916;28;20077;-79
2022/02/10 19:22:55;;;;;;;2.15;1.25;;;;;;;11.84;51.06;101757.59;5007093;28;20100;-80
2022/02/10 19:25:22;;;;;;;3.00;1.20;;;;;;;11.78;50.90;101764.25;4992624;28;20116;-80
2022/02/10 19:27:49;;;;;;;2.40;1.20;;;;;;;11.74;51.28;101756.34;5005251;28;20052;-80
2022/02/10 19:30:18;;;;;;;2.42;1.10;;;;;;;11.69;51.14;101753.03;5007747;28;20125;-79
2022/02/10 19:32:52;;;;;;;3.08;1.35;;;;;;;11.64;51.31;101752.38;5008061;28;20751;-78
2022/02/10 19:35:22;;;;;;;3.08;1.70;;;;;;;11.59;51.44;101754.50;5007070;28;20108;-80
2022/02/10 19:37:55;;;;;;;1.75;1.05;;;;;;;11.57;51.15;101756.41;5014188;28;20076;-81
2022/02/10 19:40:22;;;;;;;2.40;0.90;;;;;;;11.52;51.28;101764.84;5008336;28;20565;-80
2022/02/10 19:42:50;;;;;;;2.05;1.10;;;;;;;11.50;51.09;101758.63;5009243;28;20081;-80
2022/02/10 19:45:16;;;;;;;1.60;1.00;;;;;;;11.48;51.25;101759.66;5006110;28;20432;-80
2022/02/10 19:47:43;;;;;;;1.67;0.90;;;;;;;11.44;51.39;101757.13;5008930;28;20488;-80
2022/02/10 19:50:14;;;;;;;2.08;1.10;;;;;;;11.42;51.35;101764.50;5009225;28;20467;-80
2022/02/10 19:52:46;;;;;;;3.15;1.20;;;;;;;11.40;51.34;101771.84;5006767;28;20140;-78
2022/02/10 19:55:19;;;;;;;2.65;1.13;;;;;;;11.35;51.59;101763.06;5007323;28;20076;-79
2022/02/10 19:57:48;;;;;;;2.67;1.20;;;;;;;11.34;51.98;101764.03;5009578;28;20058;-78
2022/02/10 20:00:20;;;;;;;2.55;1.20;;;;;;;11.34;51.50;101768.59;5008684;28;20468;-79
2022/02/10 20:02:47;;;;;;;2.78;1.10;;;;;;;11.32;51.35;101774.13;5010481;28;20497;-79
2022/02/10 20:05:24;;;;;;;2.60;1.20;;;;;;;11.31;51.48;101768.75;5006972;28;20424;-79
2022/02/10 20:07:55;;;;;;;2.47;1.00;;;;;;;11.30;51.31;101776.03;5008979;28;20045;-79
2022/02/10 20:10:22;;;;;;;2.60;1.42;;;;;;;11.27;51.20;101776.22;5007281;28;20108;-79
2022/02/10 20:12:50;;;;;;;2.35;1.20;;;;;;;11.24;51.23;101786.38;5006444;28;20487;-79
2022/02/10 20:15:17;;;;;;;1.63;1.13;;;;;;;11.22;51.35;101774.69;5002837;28;20057;-78
2022/02/10 20:17:44;;;;;;;2.45;1.20;;;;;;;11.19;51.27;101781.19;5003596;28;21909;-79
2022/02/10 20:20:11;;;;;;;2.15;1.17;;;;;;;11.16;51.45;101773.19;5007178;28;20061;-79
2022/02/10 20:22:42;;;;;;;2.85;1.20;;;;;;;11.16;51.36;101780.47;5004479;28;20050;-78
2022/02/10 20:25:28;;;;;;;4.43;1.30;;;;;;;11.13;51.58;101792.38;4992545;28;20054;-78
2022/02/10 20:27:55;;;;;;;1.83;1.10;;;;;;;11.14;51.69;101790.53;4992938;28;20117;-78
2022/02/10 20:30:22;;;;;;;1.90;1.00;;;;;;;11.12;51.63;101785.19;4992574;28;20050;-78
2022/02/10 20:32:48;;;;;;;2.58;0.90;;;;;;;11.12;51.50;101790.63;4991816;28;20100;-78
2022/02/10 20:35:16;;;;;;;2.85;1.00;;;;;;;11.11;51.70;101791.59;5002457;28;20482;-78
2022/02/10 20:37:45;;;;;;;2.10;1.00;;;;;;;11.11;51.21;101799.75;5025841;28;20045;-78
2022/02/10 20:40:12;;;;;;;2.88;0.98;;;;;;;11.10;51.12;101800.72;5011006;28;20472;-78
2022/02/10 20:42:39;;;;;;;1.38;0.80;;;;;;;11.07;50.82;101799.03;5010038;28;20057;-78
2022/02/10 20:45:07;;;;;;;0.85;0.80;;;;;;;11.05;51.02;101808.22;5016033;28;20046;-78
2022/02/10 20:47:34;;;;;;;2.63;0.85;;;;;;;11.01;51.18;101804.81;5009071;28;20042;-78
2022/02/10 20:50:03;;;;;;;1.48;0.80;;;;;;;10.99;51.23;101800.41;5011830;28;20558;-78
2022/02/10 20:52:31;;;;;;;1.52;0.93;;;;;;;10.97;50.97;101805.91;5010262;28;20115;-77
2022/02/10 20:54:59;;;;;;;1.52;0.90;;;;;;;10.95;50.91;101809.69;5020222;28;20061;-78
2022/02/10 20:57:27;;;;;;;1.83;0.70;;;;;;;10.92;50.74;101805.28;5017644;28;20085;-79
2022/02/10 20:59:54;;;;;;;1.20;0.70;;;;;;;10.88;50.79;101811.84;5022420;28;20053;-79
2022/02/10 21:02:29;;;;;;;1.33;0.50;;;;;;;10.86;50.76;101810.19;5014099;28;20108;-78
2022/02/10 21:05:37;;;;;;;0.90;0.60;;;;;;;10.79;50.83;101812.31;4994980;28;20080;-78
2022/02/10 21:08:24;;;;;;;1.73;0.60;;;;;;;10.77;50.83;101816.09;5013529;28;20458;-79
2022/02/10 21:10:51;;;;;;;0.55;0.30;;;;;;;10.73;50.86;101814.47;5001058;28;20104;-79
2022/02/10 21:13:17;;;;;;;1.02;0.52;;;;;;;10.70;50.92;101812.84;5007489;28;20050;-79
2022/02/10 21:15:46;;;;;;;1.15;0.50;;;;;;;10.68;50.92;101814.75;5012762;28;20129;-80
2022/02/10 21:18:14;;;;;;;1.60;0.47;;;;;;;10.67;50.99;101810.25;5026180;28;20080;-79
2022/02/10 21:20:43;;;;;;;0.50;0.50;;;;;;;10.65;50.95;101823.91;5013947;28;20132;-79
2022/02/10 21:25:43;;;;;;;1.52;0.80;;;;;;;10.60;51.22;101819.69;5013126;28;20088;-79
2022/02/10 21:28:23;;;;;;;1.50;0.77;;;;;;;10.61;51.19;101822.34;5017237;28;20042;-79
2022/02/10 21:30:53;;;;;;;1.20;0.70;;;;;;;10.59;51.50;101828.78;5022356;28;20124;-79
2022/02/10 21:38:48;;;;;;;2.67;0.90;;;;;;;10.60;51.77;101826.00;4989093;28;20484;-78
2022/02/10 22:11:01;;;;;;;2.60;1.30;;;;;;;10.62;52.08;101823.22;5002468;28;20042;-79
2022/02/10 22:19:24;;;;;;;2.03;1.05;;;;;;;10.62;51.92;101831.34;5010508;28;20080;-80
2022/02/10 22:21:53;;;;;;;1.80;1.02;;;;;;;10.64;51.73;101832.13;5006118;28;20057;-80
2022/02/10 22:24:22;;;;;;;2.40;0.95;;;;;;;10.65;51.46;101832.06;5009502;28;20054;-79
2022/02/10 22:26:53;;;;;;;1.50;0.80;;;;;;;10.63;51.42;101833.97;5009835;28;20603;-80
2022/02/10 22:34:40;;;;;;;2.50;0.93;;;;;;;10.56;50.98;101816.25;5004389;28;20534;-80
2022/02/10 22:37:10;;;;;;;1.77;0.98;;;;;;;10.56;51.32;101809.94;5009504;28;20054;-80
2022/02/10 22:39:45;;;;;;;1.63;0.90;;;;;;;10.53;51.06;101821.84;5009037;28;20063;-80
2022/02/10 22:42:13;;;;;;;1.65;0.82;;;;;;;10.49;50.65;101825.66;5021873;28;20476;-80
2022/02/10 22:44:40;;;;;;;1.50;1.00;;;;;;;10.47;51.19;101827.56;5009455;28;20066;-80
2022/02/10 22:47:09;;;;;;;2.15;1.15;;;;;;;10.43;51.08;101816.94;5010729;28;20674;-80
2022/02/10 22:49:36;;;;;;;1.77;1.02;;;;;;;10.41;51.20;101822.47;5011699;28;20077;-80
2022/02/10 22:52:04;;;;;;;1.85;1.05;;;;;;;10.40;50.69;101826.13;5010897;28;20555;-80
2022/02/10 22:54:31;;;;;;;2.60;1.17;;;;;;;10.38;51.13;101829.91;5009464;28;20052;-80
2022/02/10 22:56:58;;;;;;;2.20;1.00;;;;;;;10.34;50.72;101829.16;5009137;28;20054;-80
2022/02/10 22:59:24;;;;;;;2.67;1.10;;;;;;;10.31;51.04;101832.00;5007521;28;20120;-80
2022/02/10 23:01:52;;;;;;;2.13;1.10;;;;;;;10.29;51.25;101823.94;5010003;28;20545;-80
2022/02/10 23:04:21;;;;;;;2.15;0.93;;;;;;;10.28;50.94;101815.91;5008583;28;20056;-79
2022/02/10 23:06:50;;;;;;;1.98;1.00;;;;;;;10.26;50.87;101815.97;5009344;28;20140;-80
2022/02/10 23:13:05;;;;;;;2.05;1.00;;;;;;;10.19;51.77;101808.22;5010711;28;20158;-80
2022/02/10 23:15:37;;;;;;;1.77;0.90;;;;;;;10.20;51.72;101818.13;5008586;28;20128;-80
2022/02/10 23:18:31;;;;;;;2.75;1.30;;;;;;;10.18;52.22;101820.91;4999320;28;20056;-80
2022/02/10 23:21:00;;;;;;;1.58;1.00;;;;;;;10.20;51.52;101818.13;5003684;28;20104;-80
2022/02/10 23:23:28;;;;;;;2.15;1.10;;;;;;;10.21;51.51;101828.03;5009271;28;20088;-80
2022/02/10 23:25:57;;;;;;;2.30;1.00;;;;;;;10.21;51.44;101818.03;4970309;28;20135;-80
2022/02/10 23:28:28;;;;;;;2.83;1.45;;;;;;;10.23;51.66;101821.53;5011242;28;20046;-80
2022/02/10 23:30:57;;;;;;;2.83;1.25;;;;;;;10.22;51.81;101821.63;4997717;28;20054;-80
2022/02/10 23:33:28;;;;;;;2.17;1.00;;;;;;;10.22;51.51;101816.19;5011053;28;20569;-80
2022/02/10 23:43:56;;;;;;;1.98;1.10;;;;;;;10.15;51.55;101836.41;5010133;28;20390;-80
2022/02/10 23:46:23;;;;;;;2.35;1.30;;;;;;;10.15;51.42;101837.28;5009007;28;20062;-80
2022/02/10 23:48:53;;;;;;;4.35;1.50;;;;;;;10.14;51.34;101827.38;5008519;28;20108;-81
2022/02/10 23:51:23;;;;;;;2.85;1.45;;;;;;;10.13;51.24;101831.06;5007557;28;20317;-80
2022/02/10 23:53:49;;;;;;;2.13;1.20;;;;;;;10.12;51.30;101828.44;4998009;28;20077;-80
2022/02/10 23:56:18;;;;;;;1.67;1.10;;;;;;;10.12;51.37;101836.59;5007000;28;20100;-79
